Time;durP1;ratioP1;P1;durP2;ratioP2;P2;SDS_P1;SDS_P2;PMS_P1;PMS_P2;Temp;Humidity;BMP_temperature;BMP_pressure;BME280_temperature;BME280_humidity;BME280_pressure;Samples;Min_cycle;Max_cycle;Signal;HPM_P1;HPM_P2
2023/04/06 05:00:25;;;;;;;11.67;10.67;;;2.90;97.20;;;;;;1707001;28;20190;-69
2023/04/06 05:01:16;;;;;;;11.70;10.60;;;2.80;97.20;;;;;;1706722;28;20231;-70
2023/04/06 05:02:08;;;;;;;10.83;9.73;;;2.80;97.20;;;;;;1706865;28;20214;-70
2023/04/06 05:02:59;;;;;;;11.32;10.25;;;2.80;97.20;;;;;;1701738;28;20452;-69
2023/04/06 05:03:51;;;;;;;13.95;10.60;;;2.80;97.20;;;;;;1700336;29;20226;-69
2023/04/06 05:04:42;;;;;;;10.90;9.82;;;2.80;97.20;;;;;;1700413;29;20298;-69
2023/04/06 05:05:34;;;;;;;11.83;10.50;;;2.80;97.20;;;;;;1700453;29;20203;-69
2023/04/06 05:06:25;;;;;;;11.50;10.40;;;2.80;97.20;;;;;;1700403;29;20461;-69
2023/04/06 05:07:18;;;;;;;11.00;10.07;;;2.90;97.20;;;;;;1705816;29;20254;-71
2023/04/06 05:08:09;;;;;;;11.95;10.73;;;2.90;97.20;;;;;;1703405;29;20285;-71
2023/04/06 05:09:01;;;;;;;11.93;9.55;;;3.00;97.20;;;;;;1701758;29;21485;-70
2023/04/06 05:09:52;;;;;;;10.80;9.80;;;3.00;97.20;;;;;;1700765;29;20658;-70
2023/04/06 05:10:45;;;;;;;10.30;9.20;;;3.00;97.20;;;;;;1702612;29;20226;-70
2023/04/06 05:11:36;;;;;;;10.80;9.70;;;3.00;97.20;;;;;;1705486;29;20203;-70
2023/04/06 05:12:28;;;;;;;12.50;9.20;;;3.10;97.20;;;;;;1707836;29;20194;-70
2023/04/06 05:13:19;;;;;;;10.65;9.60;;;3.00;97.20;;;;;;1703777;29;20442;-70
2023/04/06 05:14:11;;;;;;;10.68;9.73;;;3.00;97.20;;;;;;1701884;29;20195;-70
2023/04/06 05:15:02;;;;;;;10.00;9.10;;;3.10;97.20;;;;;;1705755;29;20214;-70
2023/04/06 05:15:55;;;;;;;11.75;8.70;;;3.10;97.20;;;;;;1708432;29;20206;-70
2023/04/06 05:16:46;;;;;;;11.13;10.02;;;3.10;97.20;;;;;;1706117;28;20202;-70
2023/04/06 05:17:38;;;;;;;10.05;9.13;;;3.10;97.20;;;;;;1704153;29;20250;-70
2023/04/06 05:18:29;;;;;;;10.50;9.48;;;3.10;97.20;;;;;;1705667;29;20207;-70
2023/04/06 05:19:21;;;;;;;11.57;10.48;;;3.20;97.20;;;;;;1703797;28;20196;-70
2023/04/06 05:20:13;;;;;;;9.90;9.00;;;3.20;97.20;;;;;;1707796;28;20213;-70
2023/04/06 05:21:05;;;;;;;10.95;9.70;;;3.20;97.20;;;;;;1705705;28;20203;-70
2023/04/06 05:21:56;;;;;;;10.40;9.07;;;3.20;97.20;;;;;;1707687;29;20293;-70
2023/04/06 05:22:47;;;;;;;10.30;9.30;;;3.30;97.20;;;;;;1705734;28;20206;-70
2023/04/06 05:23:38;;;;;;;11.43;10.30;;;3.30;97.20;;;;;;1703212;29;20486;-70
2023/04/06 05:24:30;;;;;;;10.57;9.57;;;3.30;97.20;;;;;;1704855;29;20206;-70
2023/04/06 05:25:21;;;;;;;11.00;9.82;;;3.30;97.20;;;;;;1705659;29;20455;-70
2023/04/06 05:26:13;;;;;;;10.57;9.40;;;3.30;97.20;;;;;;1707962;28;20200;-70
2023/04/06 05:27:04;;;;;;;11.63;9.43;;;3.30;97.20;;;;;;1705524;29;20210;-70
2023/04/06 05:27:56;;;;;;;11.80;10.02;;;3.30;97.20;;;;;;1706296;28;20198;-70
2023/04/06 05:28:47;;;;;;;10.80;9.73;;;3.30;97.20;;;;;;1707283;28;20249;-70
2023/04/06 05:29:39;;;;;;;10.93;9.83;;;3.30;97.20;;;;;;1701603;29;20733;-70
2023/04/06 05:30:30;;;;;;;10.80;9.70;;;3.30;97.20;;;;;;1701387;29;20810;-70
2023/04/06 05:31:23;;;;;;;11.07;10.00;;;3.30;97.20;;;;;;1701778;29;20664;-70
2023/04/06 05:32:14;;;;;;;10.80;9.70;;;3.30;97.20;;;;;;1707899;29;20878;-70
2023/04/06 05:33:06;;;;;;;10.60;9.57;;;3.30;97.20;;;;;;1707971;29;20207;-70
2023/04/06 05:33:57;;;;;;;11.80;10.23;;;3.30;97.20;;;;;;1708284;29;20481;-70
2023/04/06 05:34:50;;;;;;;9.70;8.73;;;3.40;97.20;;;;;;1707811;29;20299;-70
2023/04/06 05:35:41;;;;;;;10.52;9.43;;;3.40;97.20;;;;;;1707678;29;20207;-70
2023/04/06 05:36:33;;;;;;;10.77;9.67;;;3.40;97.20;;;;;;1708168;29;20322;-70
2023/04/06 05:37:24;;;;;;;10.60;9.60;;;3.40;97.20;;;;;;1708228;29;20926;-70
2023/04/06 05:38:16;;;;;;;12.30;11.10;;;3.40;97.20;;;;;;1708020;28;20210;-69
2023/04/06 05:39:07;;;;;;;10.75;9.30;;;3.50;97.20;;;;;;1708119;29;20533;-70
2023/04/06 05:39:58;;;;;;;10.83;9.67;;;3.40;97.20;;;;;;1708070;29;20199;-70
2023/04/06 05:40:50;;;;;;;10.13;9.07;;;3.50;97.20;;;;;;1708224;28;20531;-70
2023/04/06 05:41:42;;;;;;;12.02;10.82;;;3.50;97.20;;;;;;1707705;29;20234;-70
2023/04/06 05:42:37;;;;;;;11.13;9.95;;;3.50;97.20;;;;;;1707696;29;20594;-71
2023/04/06 05:43:29;;;;;;;10.68;9.60;;;3.50;97.20;;;;;;1708227;28;20215;-69
2023/04/06 05:44:20;;;;;;;10.60;9.50;;;3.50;97.20;;;;;;1708182;29;20237;-70
2023/04/06 05:45:16;;;;;;;11.13;9.93;;;3.50;97.20;;;;;;1707774;28;20194;-70
2023/04/06 05:46:07;;;;;;;10.98;9.98;;;3.60;97.20;;;;;;1707863;28;20453;-70
2023/04/06 05:47:00;;;;;;;9.82;8.93;;;3.60;97.20;;;;;;1708203;29;20289;-70
2023/04/06 05:47:51;;;;;;;10.93;8.90;;;3.60;97.20;;;;;;1708141;29;20701;-70
2023/04/06 05:48:43;;;;;;;9.60;8.60;;;3.60;97.20;;;;;;1707797;28;20748;-70
2023/04/06 05:49:34;;;;;;;10.60;9.60;;;3.60;97.20;;;;;;1708099;29;20884;-70
2023/04/06 05:50:26;;;;;;;12.13;9.70;;;3.70;97.20;;;;;;1708117;28;20285;-70
2023/04/06 05:51:17;;;;;;;10.25;9.07;;;3.70;97.20;;;;;;1705150;29;20250;-70
2023/04/06 05:52:09;;;;;;;10.47;8.87;;;3.70;97.20;;;;;;1704318;29;20203;-70
2023/04/06 05:53:00;;;;;;;9.70;8.70;;;3.80;97.20;;;;;;1707660;29;20596;-70
2023/04/06 05:53:52;;;;;;;10.97;9.00;;;3.80;97.20;;;;;;1708000;29;20269;-70
2023/04/06 05:54:43;;;;;;;9.38;8.38;;;3.90;97.20;;;;;;1708101;29;20457;-70
2023/04/06 05:55:35;;;;;;;9.87;8.83;;;3.90;97.20;;;;;;1707044;29;20230;-70
2023/04/06 05:56:26;;;;;;;10.07;9.10;;;4.00;97.20;;;;;;1707517;29;20940;-70
2023/04/06 05:57:18;;;;;;;9.30;8.47;;;4.00;97.20;;;;;;1708056;29;20668;-70
2023/04/06 05:58:09;;;;;;;10.43;9.43;;;4.00;97.20;;;;;;1707686;29;20441;-70
2023/04/06 05:59:01;;;;;;;9.80;8.90;;;4.00;97.20;;;;;;1708234;29;20645;-70
2023/04/06 05:59:52;;;;;;;10.55;9.55;;;4.10;97.20;;;;;;1708030;29;20206;-70
2023/04/06 06:00:45;;;;;;;9.63;8.63;;;4.10;97.20;;;;;;1707996;28;20218;-70
2023/04/06 06:01:36;;;;;;;9.77;8.55;;;4.10;97.20;;;;;;1708013;29;20454;-70
2023/04/06 06:02:31;;;;;;;10.37;9.30;;;4.20;97.20;;;;;;1707927;28;20195;-70
2023/04/06 06:03:22;;;;;;;9.90;8.93;;;4.20;97.20;;;;;;1707974;29;20509;-70
2023/04/06 06:04:14;;;;;;;9.85;8.93;;;4.20;97.20;;;;;;1708055;28;20253;-70
2023/04/06 06:05:05;;;;;;;9.63;8.73;;;4.30;97.20;;;;;;1708119;28;20771;-70
2023/04/06 06:06:01;;;;;;;9.80;8.80;;;4.30;97.20;;;;;;1708000;29;20210;-70
2023/04/06 06:06:52;;;;;;;9.20;8.20;;;4.40;97.20;;;;;;1708083;28;20586;-70
2023/04/06 06:07:44;;;;;;;9.70;8.67;;;4.40;97.20;;;;;;1708037;28;20634;-70
2023/04/06 06:08:35;;;;;;;10.48;9.38;;;4.40;97.20;;;;;;1707881;28;20537;-70
2023/04/06 06:09:27;;;;;;;9.93;8.70;;;4.50;97.20;;;;;;1707953;29;20339;-70
2023/04/06 06:10:18;;;;;;;9.93;8.93;;;4.50;97.20;;;;;;1707935;29;20624;-70
2023/04/06 06:11:10;;;;;;;11.67;9.50;;;4.50;97.20;;;;;;1708065;29;20206;-70
2023/04/06 06:12:01;;;;;;;9.95;8.93;;;4.60;97.20;;;;;;1707721;29;20959;-70
2023/04/06 06:12:53;;;;;;;9.80;8.90;;;4.60;97.20;;;;;;1708063;29;20583;-70
2023/04/06 06:13:43;;;;;;;10.40;8.40;;;4.60;97.20;;;;;;1707928;29;20450;-70
2023/04/06 06:14:35;;;;;;;11.40;9.00;;;4.60;97.20;;;;;;1708011;29;20234;-70
2023/04/06 06:15:26;;;;;;;10.65;9.70;;;4.70;97.20;;;;;;1707942;29;20250;-70
2023/04/06 06:16:19;;;;;;;10.60;9.60;;;4.70;97.20;;;;;;1708024;29;20214;-70
2023/04/06 06:17:10;;;;;;;11.00;9.30;;;4.70;97.20;;;;;;1707741;29;20449;-70
2023/04/06 06:18:03;;;;;;;11.20;9.00;;;4.70;97.20;;;;;;1707443;29;20209;-70
2023/04/06 06:18:54;;;;;;;9.63;8.70;;;4.70;97.20;;;;;;1707305;28;20937;-70
2023/04/06 06:19:45;;;;;;;10.60;9.40;;;4.80;97.20;;;;;;1707908;29;20573;-70
2023/04/06 06:20:36;;;;;;;14.25;10.38;;;4.80;97.20;;;;;;1707273;28;20243;-70
2023/04/06 06:21:28;;;;;;;11.60;9.60;;;4.80;97.20;;;;;;1707455;29;20255;-70
2023/04/06 06:22:19;;;;;;;10.20;9.02;;;4.90;97.20;;;;;;1706712;28;20454;-70
2023/04/06 06:23:11;;;;;;;10.40;9.30;;;4.90;97.20;;;;;;1707982;28;20214;-70
2023/04/06 06:24:02;;;;;;;11.55;10.30;;;5.00;97.20;;;;;;1707983;28;20199;-70
2023/04/06 06:24:54;;;;;;;10.05;9.15;;;5.00;97.20;;;;;;1708111;29;20207;-70
2023/04/06 06:25:45;;;;;;;9.85;8.90;;;5.00;97.20;;;;;;1708109;28;20210;-70
2023/04/06 06:26:39;;;;;;;10.50;9.50;;;5.10;97.20;;;;;;1708158;29;20290;-72
2023/04/06 06:27:30;;;;;;;12.82;9.80;;;5.10;97.20;;;;;;1708173;28;20230;-72
2023/04/06 06:28:21;;;;;;;10.73;8.80;;;5.10;97.20;;;;;;1707804;28;20199;-70
2023/04/06 06:29:12;;;;;;;10.27;9.30;;;5.20;97.20;;;;;;1708036;28;20452;-70
2023/04/06 06:30:05;;;;;;;12.80;9.33;;;5.20;97.20;;;;;;1708053;29;20722;-70
2023/04/06 06:30:56;;;;;;;10.73;9.65;;;5.20;97.20;;;;;;1707942;28;20486;-70
2023/04/06 06:31:48;;;;;;;10.48;9.38;;;5.30;97.20;;;;;;1707779;28;20210;-70
2023/04/06 06:32:39;;;;;;;13.38;9.88;;;5.30;97.20;;;;;;1707925;29;20208;-70
2023/04/06 06:33:32;;;;;;;11.17;9.97;;;5.40;97.20;;;;;;1708141;29;20210;-70
2023/04/06 06:34:23;;;;;;;11.00;10.00;;;5.40;97.20;;;;;;1707971;29;20450;-70
2023/04/06 06:35:15;;;;;;;10.60;9.60;;;5.40;97.20;;;;;;1708074;29;20237;-70
2023/04/06 06:36:06;;;;;;;10.80;9.70;;;5.50;97.20;;;;;;1707937;29;20211;-70
2023/04/06 06:36:58;;;;;;;11.02;9.93;;;5.60;97.20;;;;;;1708026;29;20207;-70
2023/04/06 06:37:49;;;;;;;10.80;9.77;;;5.60;97.20;;;;;;1707997;29;20215;-70
2023/04/06 06:38:41;;;;;;;10.70;9.70;;;5.70;97.20;;;;;;1707720;28;20257;-71
2023/04/06 06:39:31;;;;;;;11.07;10.00;;;5.80;97.20;;;;;;1707971;29;20206;-70
2023/04/06 06:40:25;;;;;;;11.20;9.50;;;5.80;97.20;;;;;;1707877;28;20199;-70
2023/04/06 06:41:16;;;;;;;13.35;10.00;;;5.90;97.20;;;;;;1707920;29;20454;-70
2023/04/06 06:42:08;;;;;;;10.70;9.60;;;6.00;97.20;;;;;;1707648;28;20209;-70
2023/04/06 06:42:59;;;;;;;10.02;9.10;;;6.00;97.20;;;;;;1707959;29;20579;-70
2023/04/06 06:43:51;;;;;;;10.90;9.90;;;6.10;97.20;;;;;;1707973;28;20225;-70
2023/04/06 06:44:42;;;;;;;10.02;9.13;;;6.10;97.20;;;;;;1707824;28;20233;-70
2023/04/06 06:45:33;;;;;;;14.10;10.27;;;6.20;97.20;;;;;;1707998;28;20683;-70
2023/04/06 06:46:24;;;;;;;11.50;10.00;;;6.20;97.20;;;;;;1707940;29;20463;-70
2023/04/06 06:47:16;;;;;;;9.87;8.67;;;6.30;97.20;;;;;;1708046;28;20229;-70
2023/04/06 06:48:07;;;;;;;10.30;9.18;;;6.40;97.20;;;;;;1707623;29;20754;-70
2023/04/06 06:49:00;;;;;;;14.13;10.00;;;6.40;97.20;;;;;;1708022;29;20198;-70
2023/04/06 06:49:51;;;;;;;14.15;9.85;;;6.50;97.20;;;;;;1707873;28;20712;-70
2023/04/06 06:50:43;;;;;;;10.30;9.30;;;6.50;97.20;;;;;;1707859;28;20700;-70
2023/04/06 06:51:34;;;;;;;10.45;9.45;;;6.60;97.20;;;;;;1707976;29;20450;-70
2023/04/06 06:52:26;;;;;;;11.10;9.90;;;6.70;97.20;;;;;;1707666;29;20687;-70
2023/04/06 06:53:17;;;;;;;11.68;10.32;;;6.70;97.20;;;;;;1707872;29;20454;-70
2023/04/06 06:54:08;;;;;;;11.93;10.83;;;6.80;97.20;;;;;;1707856;29;20202;-70
2023/04/06 06:55:00;;;;;;;10.55;9.55;;;6.80;97.20;;;;;;1707878;29;20202;-70
2023/04/06 06:55:51;;;;;;;10.60;9.60;;;6.90;97.20;;;;;;1707883;29;20234;-70
2023/04/06 06:56:42;;;;;;;10.25;9.25;;;6.90;97.20;;;;;;1707833;29;20203;-70
2023/04/06 06:57:34;;;;;;;11.00;9.93;;;6.90;97.20;;;;;;1707994;29;20232;-70
2023/04/06 06:58:25;;;;;;;14.27;10.20;;;7.00;97.20;;;;;;1707518;29;20446;-70
2023/04/06 06:59:17;;;;;;;11.70;10.20;;;7.00;97.20;;;;;;1707815;29;20253;-70
2023/04/06 07:00:09;;;;;;;11.30;10.30;;;7.00;97.20;;;;;;1707926;29;20217;-70
2023/04/06 07:01:01;;;;;;;10.90;9.90;;;7.10;97.20;;;;;;1707949;28;20229;-70
2023/04/06 07:01:52;;;;;;;11.63;10.52;;;7.10;97.20;;;;;;1707869;28;20310;-70
2023/04/06 07:02:44;;;;;;;10.93;9.90;;;7.10;97.20;;;;;;1707865;28;20270;-70
2023/04/06 07:03:35;;;;;;;10.48;9.57;;;7.20;97.20;;;;;;1707853;29;20458;-70
2023/04/06 07:04:28;;;;;;;10.83;9.83;;;7.20;97.20;;;;;;1707739;29;20221;-70
2023/04/06 07:05:19;;;;;;;11.05;10.00;;;7.20;97.20;;;;;;1707832;28;20450;-70
2023/04/06 07:06:11;;;;;;;11.15;10.00;;;7.30;97.20;;;;;;1707856;29;20194;-70
2023/04/06 07:07:03;;;;;;;11.27;10.20;;;7.30;97.20;;;;;;1707830;29;20214;-70
2023/04/06 07:07:55;;;;;;;10.65;9.65;;;7.30;97.20;;;;;;1707866;29;20207;-70
2023/04/06 07:08:46;;;;;;;10.98;9.88;;;7.40;97.20;;;;;;1707158;29;20222;-70
2023/04/06 07:09:38;;;;;;;11.00;9.97;;;7.40;97.20;;;;;;1707862;29;20704;-70
2023/04/06 07:10:29;;;;;;;11.93;10.50;;;7.40;97.20;;;;;;1707948;28;20929;-70
2023/04/06 07:11:22;;;;;;;11.00;9.80;;;7.50;97.20;;;;;;1707809;29;20623;-70
2023/04/06 07:12:12;;;;;;;10.85;9.73;;;7.50;97.20;;;;;;1707787;29;20819;-70
2023/04/06 07:13:04;;;;;;;11.17;10.07;;;7.50;97.20;;;;;;1707730;29;20203;-70
2023/04/06 07:13:55;;;;;;;11.48;10.30;;;7.50;97.20;;;;;;1707834;29;20681;-70
2023/04/06 07:14:47;;;;;;;11.17;10.07;;;7.60;97.20;;;;;;1707730;29;20704;-70
2023/04/06 07:15:38;;;;;;;10.35;9.35;;;7.60;97.20;;;;;;1707780;29;20469;-70
2023/04/06 07:16:30;;;;;;;10.53;9.53;;;7.60;97.20;;;;;;1707819;29;20211;-70
2023/04/06 07:17:21;;;;;;;10.32;9.35;;;7.60;97.20;;;;;;1707521;28;20203;-70
2023/04/06 07:18:13;;;;;;;11.02;9.77;;;7.60;97.20;;;;;;1707412;28;20203;-70
2023/04/06 07:19:03;;;;;;;10.90;9.95;;;7.70;97.20;;;;;;1707717;29;20199;-70
2023/04/06 07:19:57;;;;;;;11.40;10.13;;;7.70;97.20;;;;;;1707710;29;20217;-70
2023/04/06 07:20:48;;;;;;;10.63;9.52;;;7.70;97.20;;;;;;1707626;29;20222;-70
2023/04/06 07:21:39;;;;;;;9.70;8.70;;;7.80;97.20;;;;;;1707677;29;20206;-69
2023/04/06 07:22:31;;;;;;;10.45;9.45;;;7.80;97.20;;;;;;1707737;29;20462;-70
2023/04/06 07:23:23;;;;;;;11.98;10.00;;;7.90;97.20;;;;;;1707705;29;20206;-70
2023/04/06 07:24:14;;;;;;;10.45;9.55;;;7.90;97.20;;;;;;1707751;29;20219;-69
2023/04/06 07:25:06;;;;;;;10.90;9.80;;;7.90;97.20;;;;;;1707619;28;20268;-70
2023/04/06 07:25:57;;;;;;;10.73;9.63;;;8.00;97.20;;;;;;1707680;28;20539;-70
2023/04/06 07:26:49;;;;;;;10.30;9.30;;;8.00;97.20;;;;;;1707615;29;20684;-70
2023/04/06 07:27:40;;;;;;;10.38;9.43;;;8.00;97.20;;;;;;1707438;29;20232;-70
2023/04/06 07:28:31;;;;;;;10.17;9.27;;;8.10;97.20;;;;;;1707497;29;20203;-70
2023/04/06 07:29:22;;;;;;;10.98;9.98;;;8.10;97.20;;;;;;1707628;29;20450;-70
2023/04/06 07:30:15;;;;;;;11.00;9.90;;;8.20;97.20;;;;;;1707544;28;20206;-70
2023/04/06 07:31:05;;;;;;;12.05;10.77;;;8.30;97.20;;;;;;1707608;29;20454;-70
2023/04/06 07:31:57;;;;;;;11.10;10.03;;;8.40;97.20;;;;;;1707738;29;20210;-71
2023/04/06 07:32:48;;;;;;;10.38;9.52;;;8.40;97.20;;;;;;1707538;29;20766;-70
2023/04/06 07:33:40;;;;;;;10.55;9.40;;;8.40;97.20;;;;;;1707252;28;20207;-70
2023/04/06 07:34:31;;;;;;;11.63;9.95;;;8.50;97.20;;;;;;1707389;29;20213;-70
2023/04/06 07:35:25;;;;;;;10.70;9.70;;;8.50;97.20;;;;;;1707597;29;20209;-70
2023/04/06 07:36:16;;;;;;;12.20;9.65;;;8.60;97.20;;;;;;1707701;28;20741;-70
2023/04/06 07:37:08;;;;;;;10.67;9.77;;;8.60;97.20;;;;;;1707324;29;20613;-70
2023/04/06 07:37:59;;;;;;;10.88;9.88;;;8.60;97.20;;;;;;1707530;29;20473;-70
2023/04/06 07:38:51;;;;;;;12.10;10.82;;;8.60;97.20;;;;;;1707422;29;20665;-70
2023/04/06 07:39:42;;;;;;;11.65;10.45;;;8.70;97.20;;;;;;1707475;28;20206;-70
2023/04/06 07:40:34;;;;;;;11.27;10.17;;;8.70;97.20;;;;;;1707666;28;20214;-70
2023/04/06 07:41:25;;;;;;;10.05;9.15;;;8.70;97.20;;;;;;1707603;29;20285;-70
2023/04/06 07:42:17;;;;;;;11.68;10.48;;;8.80;97.20;;;;;;1707654;28;20203;-70
2023/04/06 07:43:07;;;;;;;11.23;9.70;;;8.80;97.20;;;;;;1707501;29;20206;-70
2023/04/06 07:43:59;;;;;;;10.50;9.50;;;8.80;97.20;;;;;;1707601;28;20210;-70
2023/04/06 07:44:50;;;;;;;11.27;9.75;;;8.80;97.20;;;;;;1707485;28;20257;-70
2023/04/06 07:45:42;;;;;;;10.87;9.77;;;8.80;97.20;;;;;;1707561;29;20233;-70
2023/04/06 07:46:33;;;;;;;10.00;9.10;;;8.90;97.20;;;;;;1707617;29;20211;-70
2023/04/06 07:47:25;;;;;;;10.10;9.20;;;8.90;97.20;;;;;;1707249;29;20230;-70
2023/04/06 07:48:16;;;;;;;11.40;10.15;;;8.90;97.20;;;;;;1707249;29;20453;-70
2023/04/06 07:49:07;;;;;;;10.70;9.70;;;9.00;97.20;;;;;;1707481;29;20244;-70
2023/04/06 07:49:58;;;;;;;10.65;9.55;;;9.00;97.20;;;;;;1707420;29;20202;-70
2023/04/06 07:50:51;;;;;;;10.47;9.57;;;9.10;97.20;;;;;;1707432;28;20219;-69
2023/04/06 07:51:43;;;;;;;11.20;10.10;;;9.10;97.20;;;;;;1707510;29;20454;-70
2023/04/06 07:52:34;;;;;;;10.55;9.43;;;9.20;97.20;;;;;;1707485;29;20206;-70
2023/04/06 07:53:26;;;;;;;12.50;10.13;;;9.30;97.20;;;;;;1707546;29;20709;-70
2023/04/06 07:54:17;;;;;;;11.02;9.57;;;9.40;97.20;;;;;;1707436;28;20453;-70
2023/04/06 07:55:09;;;;;;;10.80;9.40;;;9.50;97.20;;;;;;1707490;29;20191;-70
2023/04/06 07:56:00;;;;;;;11.02;10.02;;;9.50;97.20;;;;;;1707512;28;20207;-70
2023/04/06 07:56:52;;;;;;;10.70;9.60;;;9.60;97.20;;;;;;1707489;29;20203;-70
2023/04/06 07:57:43;;;;;;;9.95;9.05;;;9.60;97.20;;;;;;1707251;29;20253;-70
2023/04/06 07:58:35;;;;;;;11.90;9.50;;;9.70;97.20;;;;;;1707322;29;20198;-70
2023/04/06 07:59:25;;;;;;;11.48;9.80;;;9.70;97.20;;;;;;1707358;29;20461;-70
2023/04/06 08:00:18;;;;;;;12.70;9.90;;;9.80;97.20;;;;;;1707475;28;20234;-70
2023/04/06 08:01:08;;;;;;;13.52;10.15;;;9.80;97.20;;;;;;1707490;29;20218;-70
2023/04/06 08:02:00;;;;;;;11.30;9.70;;;9.90;97.20;;;;;;1707431;28;20432;-70
2023/04/06 08:02:51;;;;;;;11.95;10.15;;;9.90;97.20;;;;;;1707354;28;20442;-70
2023/04/06 08:03:43;;;;;;;10.63;9.53;;;10.00;97.20;;;;;;1707410;29;20202;-70
2023/04/06 08:04:34;;;;;;;11.07;10.07;;;10.00;97.20;;;;;;1707499;29;20580;-70
2023/04/06 08:05:26;;;;;;;11.50;10.20;;;10.10;97.20;;;;;;1707409;29;20214;-70
2023/04/06 08:06:19;;;;;;;12.63;9.80;;;10.20;97.20;;;;;;1707422;29;20210;-70
2023/04/06 08:07:11;;;;;;;11.30;10.18;;;10.30;97.20;;;;;;1707173;29;20202;-70
2023/04/06 08:08:01;;;;;;;11.13;9.40;;;10.30;97.20;;;;;;1707375;29;20206;-70
2023/04/06 08:08:53;;;;;;;10.80;9.70;;;10.40;97.20;;;;;;1707264;29;20222;-70
2023/04/06 08:09:44;;;;;;;10.68;9.60;;;10.50;97.20;;;;;;1707297;29;20237;-70
2023/04/06 08:10:36;;;;;;;10.03;9.13;;;10.50;97.20;;;;;;1707391;28;20234;-69
2023/04/06 08:11:27;;;;;;;10.40;9.50;;;10.60;97.20;;;;;;1707522;29;20574;-70
2023/04/06 08:12:19;;;;;;;10.43;9.50;;;10.70;97.20;;;;;;1707406;29;20203;-70
2023/04/06 08:13:10;;;;;;;11.48;10.48;;;10.70;97.20;;;;;;1707278;29;20461;-70
2023/04/06 08:14:02;;;;;;;10.35;9.35;;;10.70;97.20;;;;;;1707364;29;20289;-71
2023/04/06 08:14:53;;;;;;;11.15;10.02;;;10.70;97.20;;;;;;1707446;29;20660;-70
2023/04/06 08:15:45;;;;;;;10.80;9.70;;;10.70;97.20;;;;;;1707282;29;20603;-70
2023/04/06 08:16:36;;;;;;;10.50;9.50;;;10.70;97.20;;;;;;1707495;28;20580;-70
2023/04/06 08:17:30;;;;;;;11.07;9.93;;;10.70;97.20;;;;;;1707103;29;20631;-70
2023/04/06 08:18:20;;;;;;;11.05;10.02;;;10.70;97.20;;;;;;1707096;29;20548;-70
2023/04/06 08:19:12;;;;;;;10.53;9.53;;;10.70;97.20;;;;;;1707369;29;20659;-70
2023/04/06 08:20:04;;;;;;;9.88;8.95;;;10.70;97.20;;;;;;1707254;28;20214;-70
2023/04/06 08:20:56;;;;;;;9.93;9.02;;;10.70;97.20;;;;;;1707352;28;20222;-70
2023/04/06 08:21:48;;;;;;;10.52;9.43;;;10.80;97.20;;;;;;1707362;28;20326;-70
2023/04/06 08:22:40;;;;;;;9.68;8.77;;;10.80;97.20;;;;;;1707271;29;20217;-70
2023/04/06 08:23:31;;;;;;;10.23;9.32;;;10.90;97.20;;;;;;1707450;28;20249;-70
2023/04/06 08:24:23;;;;;;;10.50;9.30;;;10.90;97.20;;;;;;1707373;29;20198;-70
2023/04/06 08:25:14;;;;;;;10.00;9.00;;;11.00;97.20;;;;;;1707248;28;20489;-70
2023/04/06 08:26:06;;;;;;;11.07;9.80;;;11.10;97.20;;;;;;1707285;29;20205;-70
2023/04/06 08:26:57;;;;;;;10.63;9.68;;;11.20;97.20;;;;;;1707484;29;20297;-70
2023/04/06 08:27:48;;;;;;;13.80;9.37;;;11.40;97.20;;;;;;1707122;29;20195;-70
2023/04/06 08:28:39;;;;;;;10.45;9.45;;;11.50;97.20;;;;;;1707163;29;20202;-70
2023/04/06 08:29:31;;;;;;;11.20;9.70;;;11.60;97.20;;;;;;1707338;29;20471;-70
2023/04/06 08:30:22;;;;;;;11.30;10.10;;;11.70;97.20;;;;;;1707159;28;20534;-70
2023/04/06 08:31:14;;;;;;;10.27;9.37;;;11.80;97.20;;;;;;1707437;29;20222;-70
2023/04/06 08:32:06;;;;;;;10.15;9.20;;;11.80;97.20;;;;;;1707215;29;20454;-70
2023/04/06 08:32:57;;;;;;;10.23;9.32;;;11.90;97.20;;;;;;1707323;29;20750;-70
2023/04/06 08:33:48;;;;;;;10.10;9.05;;;11.90;97.20;;;;;;1707401;28;20217;-70
2023/04/06 08:34:40;;;;;;;9.67;8.77;;;12.00;97.20;;;;;;1707362;29;20668;-70
2023/04/06 08:35:31;;;;;;;9.38;8.57;;;12.10;97.20;;;;;;1707259;29;20206;-70
2023/04/06 08:36:23;;;;;;;10.43;9.43;;;12.20;97.20;;;;;;1707316;29;20206;-70
2023/04/06 08:37:15;;;;;;;12.07;9.40;;;12.30;97.20;;;;;;1707165;29;20206;-70
2023/04/06 08:38:07;;;;;;;11.07;9.52;;;12.50;97.20;;;;;;1707100;28;20674;-70
2023/04/06 08:39:00;;;;;;;10.55;9.45;;;12.50;97.20;;;;;;1707365;28;20661;-70
2023/04/06 08:39:52;;;;;;;11.57;10.07;;;12.60;97.20;;;;;;1707156;29;20212;-70
2023/04/06 08:40:44;;;;;;;11.25;10.05;;;12.60;97.20;;;;;;1707115;28;20229;-70
2023/04/06 08:41:36;;;;;;;11.05;9.95;;;12.60;97.20;;;;;;1707312;28;20740;-70
2023/04/06 08:42:32;;;;;;;11.18;10.18;;;12.70;97.20;;;;;;1707162;29;20206;-70
2023/04/06 08:43:24;;;;;;;11.07;9.88;;;12.70;97.20;;;;;;1707241;29;20604;-70
2023/04/06 08:44:18;;;;;;;11.63;10.02;;;12.70;97.20;;;;;;1707410;28;20202;-70
2023/04/06 08:45:09;;;;;;;10.52;9.52;;;12.80;97.20;;;;;;1707063;28;20208;-70
2023/04/06 08:46:02;;;;;;;10.25;9.15;;;12.90;97.20;;;;;;1707231;29;20277;-70
2023/04/06 08:46:52;;;;;;;10.48;9.48;;;13.00;97.20;;;;;;1707229;29;20669;-70
2023/04/06 08:47:44;;;;;;;11.23;10.13;;;13.10;97.20;;;;;;1706793;29;20722;-70
2023/04/06 08:48:36;;;;;;;10.35;8.98;;;13.20;97.20;;;;;;1706993;29;20481;-70
2023/04/06 08:49:29;;;;;;;9.85;8.95;;;13.40;97.20;;;;;;1706798;28;20232;-70
2023/04/06 08:50:20;;;;;;;9.88;8.88;;;13.50;97.20;;;;;;1707117;29;20222;-70
2023/04/06 08:51:12;;;;;;;10.85;9.70;;;13.60;97.20;;;;;;1707288;28;20198;-70
2023/04/06 08:52:06;;;;;;;10.60;9.55;;;13.80;97.20;;;;;;1707165;29;20697;-70
2023/04/06 08:53:00;;;;;;;10.23;9.23;;;13.90;97.20;;;;;;1707241;29;20551;-70
2023/04/06 08:53:51;;;;;;;10.10;9.20;;;14.00;97.20;;;;;;1707158;28;20206;-70
2023/04/06 08:54:43;;;;;;;11.00;9.85;;;14.10;97.20;;;;;;1707180;29;20266;-71
2023/04/06 08:55:35;;;;;;;10.63;9.65;;;14.10;97.20;;;;;;1707300;29;20210;-71
2023/04/06 08:56:28;;;;;;;10.77;9.77;;;14.20;97.20;;;;;;1707126;28;20285;-70
2023/04/06 08:57:19;;;;;;;10.73;9.63;;;14.20;97.20;;;;;;1706911;29;20209;-70
2023/04/06 08:58:11;;;;;;;11.10;10.00;;;14.30;97.20;;;;;;1707006;29;20661;-70
2023/04/06 08:59:03;;;;;;;11.00;9.93;;;14.30;97.20;;;;;;1707249;29;20747;-70
2023/04/06 08:59:57;;;;;;;10.35;9.40;;;14.40;97.20;;;;;;1707195;29;20214;-70
2023/04/06 09:00:48;;;;;;;10.35;9.27;;;14.50;97.20;;;;;;1707108;28;20222;-70
2023/04/06 09:01:42;;;;;;;10.77;9.48;;;14.60;97.20;;;;;;1707172;29;20301;-71
2023/04/06 09:02:33;;;;;;;10.65;9.40;;;14.60;97.20;;;;;;1707217;29;20213;-70
2023/04/06 09:03:26;;;;;;;10.27;9.23;;;14.70;97.20;;;;;;1707158;29;20210;-70
2023/04/06 09:04:17;;;;;;;10.98;9.98;;;14.80;97.20;;;;;;1707274;28;20206;-70
2023/04/06 09:05:10;;;;;;;9.73;8.80;;;14.90;97.20;;;;;;1707093;29;20202;-71
2023/04/06 09:06:01;;;;;;;10.25;9.25;;;15.00;97.20;;;;;;1707156;29;20458;-70
2023/04/06 09:06:53;;;;;;;12.33;9.30;;;15.10;97.20;;;;;;1707214;29;20487;-70
2023/04/06 09:07:45;;;;;;;11.65;9.27;;;15.20;97.20;;;;;;1706875;29;20454;-70
2023/04/06 09:08:39;;;;;;;11.10;10.10;;;15.30;97.20;;;;;;1707055;29;20206;-70
2023/04/06 09:09:31;;;;;;;11.38;10.27;;;15.40;97.20;;;;;;1707096;29;20202;-70
2023/04/06 09:10:24;;;;;;;12.00;10.75;;;15.50;96.90;;;;;;1707024;29;20276;-70
2023/04/06 09:11:16;;;;;;;11.10;10.00;;;15.60;97.10;;;;;;1707259;28;20261;-70
2023/04/06 09:12:10;;;;;;;11.30;10.23;;;15.70;97.20;;;;;;1707080;29;20202;-70
2023/04/06 09:13:06;;;;;;;11.43;10.32;;;15.80;97.20;;;;;;1707101;28;20661;-71
2023/04/06 09:13:58;;;;;;;12.73;9.88;;;15.80;96.50;;;;;;1707184;29;20217;-70
2023/04/06 09:14:49;;;;;;;10.70;9.40;;;15.80;95.10;;;;;;1707163;29;20238;-70
2023/04/06 09:15:41;;;;;;;10.70;9.60;;;15.80;94.20;;;;;;1707165;29;20198;-70
2023/04/06 09:16:39;;;;;;;10.65;9.65;;;15.80;93.50;;;;;;1705603;28;20206;-70
2023/04/06 09:17:33;;;;;;;10.05;9.05;;;15.80;93.60;;;;;;1702144;29;20216;-70
2023/04/06 09:18:28;;;;;;;10.93;9.77;;;15.80;93.40;;;;;;1705033;29;20214;-70
2023/04/06 09:19:20;;;;;;;10.90;9.52;;;15.80;93.20;;;;;;1700299;29;20469;-71
2023/04/06 09:20:11;;;;;;;10.02;8.93;;;15.80;92.70;;;;;;1706491;29;20566;-70
2023/04/06 09:21:05;;;;;;;11.40;10.20;;;15.80;92.90;;;;;;1706624;29;20198;-70
2023/04/06 09:22:02;;;;;;;9.32;8.10;;;15.80;92.80;;;;;;1706389;29;20209;-70
2023/04/06 09:22:54;;;;;;;11.50;8.90;;;15.90;92.20;;;;;;1706446;28;20294;-70
2023/04/06 09:23:48;;;;;;;11.60;9.15;;;16.00;91.70;;;;;;1707049;29;20708;-70
2023/04/06 09:24:44;;;;;;;9.57;8.65;;;16.00;91.30;;;;;;1707146;28;20241;-71
2023/04/06 09:25:36;;;;;;;9.05;7.70;;;16.00;90.90;;;;;;1706678;29;20234;-71
2023/04/06 09:26:27;;;;;;;9.80;8.60;;;16.00;90.50;;;;;;1707173;29;20711;-70
2023/04/06 09:27:19;;;;;;;11.90;9.10;;;16.00;90.40;;;;;;1706471;29;20781;-70
2023/04/06 09:28:10;;;;;;;8.55;7.75;;;16.00;90.90;;;;;;1705777;29;20462;-70